createdAt,value
2019-04-04T04:02:18.594Z,4.53
2019-04-04T04:04:44.594Z,4.54
2019-04-04T04:07:13.931Z,4.49
2019-04-04T04:09:38.047Z,4.44
2019-04-04T04:12:03.808Z,4.45
2019-04-04T04:14:29.910Z,4.47
2019-04-04T04:16:55.601Z,4.49
2019-04-04T04:19:24.171Z,4.51
2019-04-04T04:21:49.330Z,4.53
2019-04-04T04:24:15.032Z,4.56
2019-04-04T04:26:42.094Z,4.58
2019-04-04T04:29:08.016Z,4.55
2019-04-04T04:31:34.130Z,4.51
2019-04-04T04:34:01.578Z,4.52
2019-04-04T04:36:27.428Z,4.47
2019-04-04T04:38:53.199Z,4.45
2019-04-04T04:41:20.378Z,4.46
2019-04-04T04:43:46.919Z,4.48
2019-04-04T04:46:16.944Z,4.50
2019-04-04T04:48:40.217Z,4.50
2019-04-04T04:51:05.990Z,4.38
2019-04-04T04:53:31.990Z,4.29
2019-04-04T04:56:00.443Z,4.28
2019-04-04T04:58:25.373Z,4.23
2019-04-04T05:00:51.166Z,4.25
2019-04-04T05:03:16.860Z,4.30
2019-04-04T05:05:42.577Z,4.24
2019-04-04T05:08:10.174Z,4.23
2019-04-04T05:10:36.367Z,4.24
2019-04-04T05:13:02.054Z,4.24
2019-04-04T05:15:28.093Z,4.27
2019-04-04T05:17:54.087Z,4.22
2019-04-04T05:20:20.140Z,4.19
2019-04-04T05:22:45.845Z,4.17
2019-04-04T05:25:11.552Z,4.10
2019-04-04T05:27:37.924Z,4.02
2019-04-04T05:30:08.194Z,4.03
2019-04-04T05:32:32.729Z,4.04
2019-04-04T05:35:00.983Z,4.03
2019-04-04T05:37:27.591Z,4.02
2019-04-04T05:39:55.314Z,4.04
2019-04-04T05:42:21.247Z,4.01
2019-04-04T05:44:47.019Z,3.96
2019-04-04T05:47:12.788Z,4.01
2019-04-04T05:49:38.882Z,4.01
2019-04-04T05:52:05.037Z,4.07
2019-04-04T05:54:30.712Z,4.01
2019-04-04T05:56:56.589Z,3.98
2019-04-04T05:59:23.868Z,3.98
2019-04-04T06:01:50.536Z,4.03
2019-04-04T06:04:17.231Z,4.00
2019-04-04T06:06:44.136Z,3.97
2019-04-04T06:09:10.154Z,3.94
2019-04-04T06:11:36.282Z,3.91
2019-04-04T06:14:02.055Z,3.87
2019-04-04T06:16:27.816Z,3.90
2019-04-04T06:18:53.577Z,3.78
2019-04-04T06:21:19.349Z,3.78
2019-04-04T06:23:45.133Z,3.80
2019-04-04T06:26:10.941Z,3.77
2019-04-04T06:28:36.698Z,3.84
2019-04-04T06:31:02.390Z,3.94
2019-04-04T06:33:28.126Z,4.02
2019-04-04T06:35:53.876Z,4.11
2019-04-04T06:38:22.967Z,4.15
2019-04-04T06:40:47.111Z,4.22
2019-04-04T06:43:12.854Z,4.26
2019-04-04T06:45:38.590Z,4.30
2019-04-04T06:48:04.694Z,4.32
2019-04-04T06:50:30.378Z,4.46
2019-04-04T06:52:56.695Z,4.38
2019-04-04T06:55:22.991Z,4.38
2019-04-04T06:57:51.145Z,4.45
2019-04-04T07:00:16.669Z,4.33
2019-04-04T07:02:42.885Z,4.41
2019-04-04T07:05:10.599Z,4.49
2019-04-04T07:07:36.786Z,4.36
2019-04-04T07:10:05.239Z,4.16
2019-04-04T07:12:30.961Z,4.12
2019-04-04T07:14:57.000Z,4.04
2019-04-04T07:17:22.974Z,4.03
2019-04-04T07:19:48.693Z,4.03
2019-04-04T07:22:14.447Z,4.07
2019-04-04T07:24:40.220Z,4.06
2019-04-04T07:27:05.976Z,4.07
2019-04-04T07:29:31.767Z,4.16
2019-04-04T07:31:57.533Z,4.07
2019-04-04T07:34:23.555Z,4.04
2019-04-04T07:36:51.217Z,4.01
2019-04-04T07:39:16.871Z,4.10
2019-04-04T07:41:45.018Z,4.13
2019-04-04T07:44:10.634Z,4.09
2019-04-04T07:46:36.394Z,4.15
2019-04-04T07:49:02.295Z,4.24
2019-04-04T07:51:28.137Z,4.35
2019-04-04T07:53:55.595Z,4.43
2019-04-04T07:56:21.393Z,4.38
2019-04-04T07:58:47.129Z,4.40
2019-04-04T08:01:12.810Z,4.42
2019-04-04T08:03:38.536Z,4.49
2019-04-04T08:06:04.307Z,4.65
2019-04-04T08:08:30.057Z,4.72
2019-04-04T08:10:55.837Z,4.83
2019-04-04T08:13:21.518Z,4.72
2019-04-04T08:15:47.244Z,4.74
2019-04-04T08:18:13.005Z,4.77
2019-04-04T08:20:38.789Z,4.99
2019-04-04T08:23:04.482Z,4.95
2019-04-04T08:25:30.477Z,5.09
2019-04-04T08:27:56.154Z,5.23
2019-04-04T08:30:21.868Z,5.49
2019-04-04T08:32:47.636Z,5.64
2019-04-04T08:35:13.332Z,5.63
2019-04-04T08:37:39.036Z,5.68
2019-04-04T08:40:05.489Z,5.62
2019-04-04T08:42:31.249Z,5.54
2019-04-04T08:44:57.021Z,5.67
2019-04-04T08:47:23.020Z,5.74
2019-04-04T08:49:48.805Z,5.57
2019-04-04T08:52:16.795Z,5.51
2019-04-04T08:54:42.043Z,5.47
2019-04-04T08:57:08.070Z,5.47
2019-04-04T08:59:33.762Z,5.45
2019-04-04T09:01:59.816Z,5.46
2019-04-04T09:04:25.509Z,5.53
2019-04-04T09:06:51.554Z,5.89
2019-04-04T09:09:17.242Z,5.90
2019-04-04T09:11:42.956Z,5.84
2019-04-04T09:14:09.009Z,5.75
2019-04-04T09:16:34.719Z,5.75
2019-04-04T09:19:00.416Z,5.69
2019-04-04T09:21:26.195Z,5.71
2019-04-04T09:23:52.283Z,5.81
2019-04-04T09:26:17.981Z,5.82
2019-04-04T09:28:43.688Z,5.79
2019-04-04T09:31:09.459Z,6.09
2019-04-04T09:33:35.221Z,6.07
2019-04-04T09:36:01.287Z,6.15
2019-04-04T09:38:29.125Z,6.37
2019-04-04T09:40:54.880Z,6.43
2019-04-04T09:43:20.653Z,6.76
2019-04-04T09:45:46.723Z,6.46
2019-04-04T09:48:12.685Z,6.53
2019-04-04T09:50:38.404Z,6.64
2019-04-04T09:53:04.189Z,6.72
2019-04-04T09:55:29.928Z,6.69
2019-04-04T09:57:55.686Z,6.65
2019-04-04T10:00:22.649Z,6.70
2019-04-04T10:02:48.426Z,6.59
2019-04-04T10:05:14.495Z,6.53
2019-04-04T10:07:40.320Z,6.63
2019-04-04T10:10:06.437Z,6.53
2019-04-04T10:12:32.418Z,6.42
2019-04-04T10:14:58.119Z,6.46
2019-04-04T10:17:23.884Z,6.39
2019-04-04T10:19:49.640Z,6.48
2019-04-04T10:22:15.741Z,6.29
2019-04-04T10:24:41.424Z,6.59
2019-04-04T10:27:07.135Z,6.47
2019-04-04T10:29:33.196Z,6.52
2019-04-04T10:31:58.889Z,6.70
2019-04-04T10:34:24.596Z,6.67
2019-04-04T10:36:50.660Z,7.20
2019-04-04T10:39:28.328Z,7.42
2019-04-04T10:41:43.965Z,7.18
2019-04-04T10:44:10.064Z,6.83
2019-04-04T10:46:36.038Z,7.05
2019-04-04T10:49:01.768Z,6.92
2019-04-04T10:51:27.560Z,6.74
2019-04-04T10:53:53.318Z,6.76
2019-04-04T10:56:19.076Z,6.77
2019-04-04T10:58:44.845Z,6.73
2019-04-04T11:01:10.606Z,6.85
2019-04-04T11:03:36.722Z,6.60
2019-04-04T11:06:02.694Z,6.49
2019-04-04T11:08:28.663Z,6.59
2019-04-04T11:10:54.424Z,6.67
2019-04-04T11:13:32.540Z,6.94
2019-04-04T11:15:48.172Z,6.97
2019-04-04T11:18:13.939Z,6.79
2019-04-04T11:20:39.945Z,6.78
2019-04-04T11:23:05.717Z,6.65
2019-04-04T11:25:31.471Z,6.54
2019-04-04T11:27:57.254Z,6.22
2019-04-04T11:30:23.011Z,6.19
2019-04-04T11:32:49.132Z,6.16
2019-04-04T11:35:15.054Z,6.18
2019-04-04T11:37:40.846Z,6.10
2019-04-04T11:40:06.887Z,5.95
2019-04-04T11:42:32.652Z,5.77
2019-04-04T11:44:58.723Z,5.65
2019-04-04T11:47:24.744Z,5.46
2019-04-04T11:49:50.769Z,5.37
2019-04-04T11:52:16.462Z,5.47
2019-04-04T11:55:01.357Z,5.56
2019-04-04T11:57:27.479Z,5.55
2019-04-04T11:59:53.470Z,5.43
2019-04-04T12:02:19.189Z,5.27
2019-04-04T12:04:44.964Z,5.18
2019-04-04T12:07:10.734Z,5.29
2019-04-04T12:09:36.425Z,5.23
2019-04-04T12:12:02.397Z,5.12
2019-04-04T12:14:28.092Z,5.01
2019-04-04T12:16:53.791Z,4.64
2019-04-04T12:19:19.854Z,4.61
2019-04-04T12:21:45.836Z,4.70
2019-04-04T12:24:11.548Z,4.70
2019-04-04T12:26:37.620Z,4.72
2019-04-04T12:29:03.313Z,4.74
2019-04-04T12:31:29.016Z,4.85
2019-04-04T12:33:55.076Z,4.80
2019-04-04T12:36:24.683Z,4.61
2019-04-04T12:38:48.415Z,4.58
2019-04-04T12:41:14.192Z,4.53
2019-04-04T12:43:40.297Z,4.35
2019-04-04T12:46:05.984Z,4.37
2019-04-04T12:48:31.702Z,4.33
2019-04-04T12:50:57.757Z,4.16
2019-04-04T12:53:23.458Z,4.07
2019-04-04T12:55:49.503Z,4.05
2019-04-04T12:58:15.197Z,4.11
2019-04-04T13:00:40.903Z,4.26
2019-04-04T13:03:06.606Z,4.32
2019-04-04T13:05:32.321Z,4.44
2019-04-04T13:07:58.042Z,4.56
2019-04-04T13:10:32.819Z,4.68
2019-04-04T13:12:51.669Z,4.84
2019-04-04T13:15:17.440Z,4.78
2019-04-04T13:17:43.507Z,4.85
2019-04-04T13:20:09.206Z,4.83
2019-04-04T13:22:35.298Z,5.00
2019-04-04T13:25:00.958Z,5.17
2019-04-04T13:27:26.659Z,5.06
2019-04-04T13:29:52.814Z,4.95
2019-04-04T13:32:18.503Z,4.94
2019-04-04T13:34:44.224Z,4.92
2019-04-04T13:37:09.987Z,4.84
2019-04-04T13:39:35.759Z,4.86
2019-04-04T13:42:01.777Z,4.87
2019-04-04T13:44:27.491Z,4.50
2019-04-04T13:46:53.182Z,4.54
2019-04-04T13:49:19.164Z,4.49
2019-04-04T13:51:44.842Z,4.59
2019-04-04T13:54:10.905Z,4.63
2019-04-04T13:56:36.605Z,4.48
2019-04-04T13:59:05.667Z,4.64
2019-04-04T14:01:29.987Z,4.72
2019-04-04T14:03:55.757Z,4.69
2019-04-04T14:06:21.454Z,4.60
2019-04-04T14:08:47.153Z,4.49
2019-04-04T14:11:12.922Z,4.54
2019-04-04T14:13:38.676Z,4.44
2019-04-04T14:16:04.453Z,4.46
2019-04-04T14:18:39.458Z,4.41
2019-04-04T14:21:03.880Z,4.39
2019-04-04T14:23:25.553Z,4.34
2019-04-04T14:25:51.321Z,4.31
2019-04-04T14:28:17.784Z,4.37
2019-04-04T14:30:43.552Z,4.41
2019-04-04T14:33:09.466Z,4.41
2019-04-04T14:35:35.236Z,4.31
2019-04-04T14:38:01.288Z,4.26
2019-04-04T14:40:26.986Z,4.28
2019-04-04T14:42:52.709Z,4.32
2019-04-04T14:45:18.413Z,4.21
2019-04-04T14:47:44.466Z,4.01
2019-04-04T14:50:10.162Z,4.11
2019-04-04T14:52:39.165Z,4.02
2019-04-04T14:55:04.475Z,4.05
2019-04-04T14:57:30.247Z,4.09
2019-04-04T14:59:56.021Z,3.98
2019-04-04T15:02:21.820Z,4.09
2019-04-04T15:04:47.548Z,4.10
2019-04-04T15:07:13.580Z,4.24
2019-04-04T15:09:39.332Z,4.04
2019-04-04T15:12:05.370Z,3.94
2019-04-04T15:14:31.085Z,3.82
2019-04-04T15:16:56.857Z,3.77
2019-04-04T15:19:22.640Z,3.80
2019-04-04T15:21:48.697Z,3.83
2019-04-04T15:24:14.390Z,3.76
2019-04-04T15:26:40.437Z,3.77
2019-04-04T15:29:06.438Z,3.82
2019-04-04T15:31:32.143Z,3.69
2019-04-04T15:33:58.154Z,3.75
2019-04-04T15:36:23.881Z,3.71
2019-04-04T15:38:49.562Z,3.61
2019-04-04T15:41:15.306Z,3.51
2019-04-04T15:43:40.998Z,3.48
2019-04-04T15:46:06.991Z,3.58
2019-04-04T15:48:32.681Z,3.53
2019-04-04T15:50:58.395Z,3.53
2019-04-04T15:53:24.402Z,3.55
2019-04-04T15:55:50.127Z,3.64
2019-04-04T15:58:15.809Z,3.65
2019-04-04T16:00:41.806Z,3.56
2019-04-04T16:03:07.515Z,3.55
2019-04-04T16:05:33.232Z,3.59
2019-04-04T16:07:59.214Z,3.62
2019-04-04T16:10:25.240Z,3.68
2019-04-04T16:12:51.163Z,3.61
2019-04-04T16:15:17.133Z,3.59
2019-04-04T16:17:42.838Z,3.51
2019-04-04T16:20:09.639Z,3.47
2019-04-04T16:22:35.417Z,3.43
2019-04-04T16:25:01.212Z,3.45
2019-04-04T16:27:27.206Z,3.41
2019-04-04T16:29:53.173Z,3.38
2019-04-04T16:32:19.150Z,3.31
2019-04-04T16:34:45.137Z,3.30
2019-04-04T16:37:10.836Z,3.36
2019-04-04T16:39:36.536Z,3.44
2019-04-04T16:42:02.754Z,3.40
2019-04-04T16:44:29.118Z,3.43
2019-04-04T16:46:54.914Z,3.45
2019-04-04T16:49:20.609Z,3.35
2019-04-04T16:51:46.677Z,3.32
2019-04-04T16:54:12.701Z,3.27
2019-04-04T16:56:38.399Z,3.29
2019-04-04T16:59:04.109Z,3.28
2019-04-04T17:01:30.105Z,3.25
2019-04-04T17:04:01.525Z,3.28
2019-04-04T17:06:23.506Z,3.24
2019-04-04T17:08:49.207Z,3.24
2019-04-04T17:11:14.898Z,3.24
2019-04-04T17:13:40.597Z,3.13
2019-04-04T17:16:06.610Z,3.11
2019-04-04T17:18:32.591Z,3.02
2019-04-04T17:20:58.288Z,3.03
2019-04-04T17:23:24.006Z,3.00
2019-04-04T17:25:49.709Z,3.01
2019-04-04T17:28:15.725Z,2.97
2019-04-04T17:30:41.835Z,2.93
2019-04-04T17:33:08.258Z,2.88
2019-04-04T17:35:34.116Z,2.81
2019-04-04T17:37:59.818Z,2.77
2019-04-04T17:40:25.522Z,2.73
2019-04-04T17:42:51.214Z,2.66
2019-04-04T17:45:17.367Z,2.62
2019-04-04T17:47:43.195Z,2.65
2019-04-04T17:50:10.746Z,2.62
2019-04-04T17:52:36.704Z,2.61
2019-04-04T17:55:03.394Z,2.59
2019-04-04T17:57:29.516Z,2.56
2019-04-04T17:59:55.662Z,2.57
2019-04-04T18:02:21.357Z,2.53
2019-04-04T18:04:48.452Z,2.53
2019-04-04T18:07:14.658Z,2.53
2019-04-04T18:09:40.342Z,2.54
2019-04-04T18:12:06.049Z,2.53
2019-04-04T18:14:32.078Z,2.55
2019-04-04T18:16:58.143Z,2.53
2019-04-04T18:19:24.261Z,2.51
2019-04-04T18:21:50.019Z,2.51
2019-04-04T18:24:15.718Z,2.54
2019-04-04T18:26:41.433Z,2.49
2019-04-04T18:29:07.390Z,2.46
2019-04-04T18:31:33.096Z,2.53
2019-04-04T18:33:59.130Z,2.54
2019-04-04T18:36:25.390Z,2.60
2019-04-04T18:38:51.645Z,2.64
2019-04-04T18:41:17.420Z,2.62
2019-04-04T18:43:43.438Z,2.63
2019-04-04T18:46:09.403Z,2.63
2019-04-04T18:48:35.101Z,2.62
2019-04-04T18:51:01.145Z,2.60
2019-04-04T18:53:26.933Z,2.63
2019-04-04T18:55:52.627Z,2.64
2019-04-04T18:58:18.334Z,2.67
2019-04-04T19:00:44.477Z,2.66
2019-04-04T19:03:10.555Z,2.71
2019-04-04T19:05:36.316Z,2.69
2019-04-04T19:08:02.018Z,2.71
2019-04-04T19:10:27.754Z,2.71
2019-04-04T19:13:04.737Z,2.72
2019-04-04T19:15:21.064Z,2.74
2019-04-04T19:17:46.766Z,2.72
2019-04-04T19:20:12.861Z,2.75
2019-04-04T19:22:38.947Z,2.75
2019-04-04T19:25:04.749Z,2.76
2019-04-04T19:27:30.499Z,2.76
2019-04-04T19:29:57.431Z,2.76
2019-04-04T19:32:23.120Z,2.77
2019-04-04T19:34:48.833Z,2.70
2019-04-04T19:37:14.945Z,2.67
2019-04-04T19:39:41.012Z,2.72
2019-04-04T19:42:07.194Z,2.73
2019-04-04T19:44:33.179Z,2.70
2019-04-04T19:46:59.165Z,2.72
2019-04-04T19:49:24.979Z,2.73
2019-04-04T19:51:50.670Z,2.78
2019-04-04T19:54:19.090Z,2.79
2019-04-04T19:56:44.048Z,2.76
2019-04-04T19:59:10.022Z,2.73
2019-04-04T20:01:36.046Z,2.72
2019-04-04T20:04:01.751Z,2.71
2019-04-04T20:06:28.108Z,2.73
2019-04-04T20:08:53.971Z,2.61
2019-04-04T20:11:19.954Z,2.56
2019-04-04T20:13:45.658Z,2.56
2019-04-04T20:16:12.459Z,2.54
2019-04-04T20:18:38.294Z,2.57
2019-04-04T20:21:04.143Z,2.60
2019-04-04T20:23:30.172Z,2.60
2019-04-04T20:25:55.878Z,2.58
2019-04-04T20:28:21.618Z,2.54
2019-04-04T20:30:47.326Z,2.55
2019-04-04T20:33:13.562Z,2.56
2019-04-04T20:35:39.614Z,2.57
2019-04-04T20:38:05.966Z,2.59
2019-04-04T20:40:31.696Z,2.55
2019-04-04T20:42:57.806Z,2.52
2019-04-04T20:45:23.533Z,2.50
2019-04-04T20:47:49.218Z,2.49
2019-04-04T20:50:14.940Z,2.48
2019-04-04T20:52:40.629Z,2.49
2019-04-04T20:55:06.605Z,2.49
2019-04-04T20:57:32.623Z,2.48
